sensor_id;sensor_type;location;lat;lon;timestamp;temperature;humidity
66722;SHT31;53633;49.932;10.884;2023-08-07T00:02:00;14.01;90.18
66722;SHT31;53633;49.932;10.884;2023-08-07T00:04:28;13.88;90.15
66722;SHT31;53633;49.932;10.884;2023-08-07T00:06:54;13.81;90.62
66722;SHT31;53633;49.932;10.884;2023-08-07T00:09:22;13.91;90.42
66722;SHT31;53633;49.932;10.884;2023-08-07T00:11:49;13.83;90.24
66722;SHT31;53633;49.932;10.884;2023-08-07T00:14:16;13.80;90.47
66722;SHT31;53633;49.932;10.884;2023-08-07T00:16:43;13.78;90.72
66722;SHT31;53633;49.932;10.884;2023-08-07T00:19:10;13.81;90.80
66722;SHT31;53633;49.932;10.884;2023-08-07T00:21:37;13.84;90.81
66722;SHT31;53633;49.932;10.884;2023-08-07T00:24:04;13.91;90.72
66722;SHT31;53633;49.932;10.884;2023-08-07T00:26:32;13.80;90.68
66722;SHT31;53633;49.932;10.884;2023-08-07T00:28:59;13.76;91.07
66722;SHT31;53633;49.932;10.884;2023-08-07T00:31:26;13.76;91.31
66722;SHT31;53633;49.932;10.884;2023-08-07T00:33:53;13.67;91.41
66722;SHT31;53633;49.932;10.884;2023-08-07T00:36:19;13.73;91.65
66722;SHT31;53633;49.932;10.884;2023-08-07T00:38:46;13.70;91.56
66722;SHT31;53633;49.932;10.884;2023-08-07T00:41:13;13.71;91.90
66722;SHT31;53633;49.932;10.884;2023-08-07T00:43:41;13.73;91.95
66722;SHT31;53633;49.932;10.884;2023-08-07T00:46:07;13.71;91.93
66722;SHT31;53633;49.932;10.884;2023-08-07T00:48:34;13.66;92.38
66722;SHT31;53633;49.932;10.884;2023-08-07T00:51:02;13.67;92.35
66722;SHT31;53633;49.932;10.884;2023-08-07T00:53:29;13.59;92.37
66722;SHT31;53633;49.932;10.884;2023-08-07T00:55:56;13.59;92.48
66722;SHT31;53633;49.932;10.884;2023-08-07T00:58:23;13.57;92.82
66722;SHT31;53633;49.932;10.884;2023-08-07T01:00:51;13.56;92.73
66722;SHT31;53633;49.932;10.884;2023-08-07T01:03:17;13.56;92.87
66722;SHT31;53633;49.932;10.884;2023-08-07T01:05:44;13.57;92.83
66722;SHT31;53633;49.932;10.884;2023-08-07T01:08:11;13.50;92.88
66722;SHT31;53633;49.932;10.884;2023-08-07T01:10:47;13.60;92.60
66722;SHT31;53633;49.932;10.884;2023-08-07T01:13:23;13.59;92.66
66722;SHT31;53633;49.932;10.884;2023-08-07T01:15:55;13.49;92.75
66722;SHT31;53633;49.932;10.884;2023-08-07T01:18:22;13.45;92.94
66722;SHT31;53633;49.932;10.884;2023-08-07T01:20:49;13.43;93.14
66722;SHT31;53633;49.932;10.884;2023-08-07T01:23:18;13.48;92.85
66722;SHT31;53633;49.932;10.884;2023-08-07T01:25:44;13.40;92.84
66722;SHT31;53633;49.932;10.884;2023-08-07T01:28:16;13.42;92.83
66722;SHT31;53633;49.932;10.884;2023-08-07T01:30:49;13.43;92.76
66722;SHT31;53633;49.932;10.884;2023-08-07T01:33:22;13.43;92.72
66722;SHT31;53633;49.932;10.884;2023-08-07T01:35:53;13.45;92.39
66722;SHT31;53633;49.932;10.884;2023-08-07T01:38:25;13.43;92.54
66722;SHT31;53633;49.932;10.884;2023-08-07T01:40:52;13.45;92.23
66722;SHT31;53633;49.932;10.884;2023-08-07T01:43:19;13.38;92.34
66722;SHT31;53633;49.932;10.884;2023-08-07T01:45:46;13.36;92.25
66722;SHT31;53633;49.932;10.884;2023-08-07T01:48:13;13.43;92.21
66722;SHT31;53633;49.932;10.884;2023-08-07T01:50:40;13.43;92.08
66722;SHT31;53633;49.932;10.884;2023-08-07T01:53:07;13.40;92.23
66722;SHT31;53633;49.932;10.884;2023-08-07T01:55:35;13.31;92.52
66722;SHT31;53633;49.932;10.884;2023-08-07T01:58:02;13.35;92.45
66722;SHT31;53633;49.932;10.884;2023-08-07T02:00:28;13.39;92.42
66722;SHT31;53633;49.932;10.884;2023-08-07T02:02:55;13.35;92.36
66722;SHT31;53633;49.932;10.884;2023-08-07T02:05:22;13.36;92.34
66722;SHT31;53633;49.932;10.884;2023-08-07T02:07:49;13.34;92.42
66722;SHT31;53633;49.932;10.884;2023-08-07T02:10:15;13.39;92.51
66722;SHT31;53633;49.932;10.884;2023-08-07T02:12:44;13.34;92.40
66722;SHT31;53633;49.932;10.884;2023-08-07T02:15:10;13.40;92.22
66722;SHT31;53633;49.932;10.884;2023-08-07T02:17:37;13.31;92.17
66722;SHT31;53633;49.932;10.884;2023-08-07T02:20:05;13.28;92.33
66722;SHT31;53633;49.932;10.884;2023-08-07T02:22:32;13.31;92.39
66722;SHT31;53633;49.932;10.884;2023-08-07T02:24:58;13.29;92.48
66722;SHT31;53633;49.932;10.884;2023-08-07T02:27:25;13.23;92.69
66722;SHT31;53633;49.932;10.884;2023-08-07T02:29:53;13.28;92.31
66722;SHT31;53633;49.932;10.884;2023-08-07T02:32:20;13.29;92.23
66722;SHT31;53633;49.932;10.884;2023-08-07T02:34:47;13.26;92.34
66722;SHT31;53633;49.932;10.884;2023-08-07T02:37:13;13.31;91.86
66722;SHT31;53633;49.932;10.884;2023-08-07T02:39:40;13.23;92.00
66722;SHT31;53633;49.932;10.884;2023-08-07T02:42:07;13.18;92.09
66722;SHT31;53633;49.932;10.884;2023-08-07T02:44:33;13.15;92.15
66722;SHT31;53633;49.932;10.884;2023-08-07T02:47:02;13.12;92.22
66722;SHT31;53633;49.932;10.884;2023-08-07T02:49:29;13.10;92.12
66722;SHT31;53633;49.932;10.884;2023-08-07T02:51:55;13.11;92.04
66722;SHT31;53633;49.932;10.884;2023-08-07T02:54:22;13.08;92.11
66722;SHT31;53633;49.932;10.884;2023-08-07T02:56:49;13.05;91.81
66722;SHT31;53633;49.932;10.884;2023-08-07T02:59:16;13.11;92.10
66722;SHT31;53633;49.932;10.884;2023-08-07T03:01:43;13.04;92.03
66722;SHT31;53633;49.932;10.884;2023-08-07T03:04:11;13.07;92.17
66722;SHT31;53633;49.932;10.884;2023-08-07T03:06:37;13.07;92.12
66722;SHT31;53633;49.932;10.884;2023-08-07T03:09:04;13.02;91.84
66722;SHT31;53633;49.932;10.884;2023-08-07T03:11:31;13.05;92.05
66722;SHT31;53633;49.932;10.884;2023-08-07T03:13:57;13.08;92.07
66722;SHT31;53633;49.932;10.884;2023-08-07T03:16:24;13.05;92.09
66722;SHT31;53633;49.932;10.884;2023-08-07T03:18:51;13.11;91.85
66722;SHT31;53633;49.932;10.884;2023-08-07T03:21:19;13.11;91.73
66722;SHT31;53633;49.932;10.884;2023-08-07T03:23:46;13.10;91.72
66722;SHT31;53633;49.932;10.884;2023-08-07T03:26:12;13.10;91.67
66722;SHT31;53633;49.932;10.884;2023-08-07T03:28:42;13.01;91.87
66722;SHT31;53633;49.932;10.884;2023-08-07T03:31:09;13.00;92.01
66722;SHT31;53633;49.932;10.884;2023-08-07T03:33:35;12.95;92.17
66722;SHT31;53633;49.932;10.884;2023-08-07T03:36:02;12.98;92.12
66722;SHT31;53633;49.932;10.884;2023-08-07T03:38:31;12.90;92.16
66722;SHT31;53633;49.932;10.884;2023-08-07T03:40:57;12.87;92.09
66722;SHT31;53633;49.932;10.884;2023-08-07T03:43:24;12.90;92.12
66722;SHT31;53633;49.932;10.884;2023-08-07T03:45:54;12.97;91.95
66722;SHT31;53633;49.932;10.884;2023-08-07T03:48:21;12.94;91.89
66722;SHT31;53633;49.932;10.884;2023-08-07T03:50:48;12.87;92.05
66722;SHT31;53633;49.932;10.884;2023-08-07T03:53:15;12.88;92.08
66722;SHT31;53633;49.932;10.884;2023-08-07T03:55:43;12.90;92.18
66722;SHT31;53633;49.932;10.884;2023-08-07T03:58:09;12.91;92.01
66722;SHT31;53633;49.932;10.884;2023-08-07T04:00:36;12.87;92.32
66722;SHT31;53633;49.932;10.884;2023-08-07T04:03:03;12.90;92.33
66722;SHT31;53633;49.932;10.884;2023-08-07T04:05:33;12.92;92.29
66722;SHT31;53633;49.932;10.884;2023-08-07T04:08:00;12.85;92.03
66722;SHT31;53633;49.932;10.884;2023-08-07T04:10:26;12.91;92.28
66722;SHT31;53633;49.932;10.884;2023-08-07T04:12:55;12.94;91.94
66722;SHT31;53633;49.932;10.884;2023-08-07T04:15:22;12.85;91.81
66722;SHT31;53633;49.932;10.884;2023-08-07T04:17:48;12.91;91.71
66722;SHT31;53633;49.932;10.884;2023-08-07T04:20:15;12.95;91.68
66722;SHT31;53633;49.932;10.884;2023-08-07T04:22:42;12.92;91.51
66722;SHT31;53633;49.932;10.884;2023-08-07T04:25:09;12.84;91.57
66722;SHT31;53633;49.932;10.884;2023-08-07T04:27:36;12.90;91.80
66722;SHT31;53633;49.932;10.884;2023-08-07T04:30:05;12.77;91.63
66722;SHT31;53633;49.932;10.884;2023-08-07T04:32:32;12.85;92.02
66722;SHT31;53633;49.932;10.884;2023-08-07T04:34:59;12.91;92.01
66722;SHT31;53633;49.932;10.884;2023-08-07T04:37:26;12.90;91.60
66722;SHT31;53633;49.932;10.884;2023-08-07T04:39:52;12.85;91.48
66722;SHT31;53633;49.932;10.884;2023-08-07T04:42:19;12.85;91.45
66722;SHT31;53633;49.932;10.884;2023-08-07T04:44:46;12.90;91.41
66722;SHT31;53633;49.932;10.884;2023-08-07T04:47:14;13.00;91.31
66722;SHT31;53633;49.932;10.884;2023-08-07T04:49:41;12.98;91.41
66722;SHT31;53633;49.932;10.884;2023-08-07T04:52:08;12.94;91.03
66722;SHT31;53633;49.932;10.884;2023-08-07T04:54:51;12.91;90.87
66722;SHT31;53633;49.932;10.884;2023-08-07T04:57:18;12.90;91.12
66722;SHT31;53633;49.932;10.884;2023-08-07T04:59:45;12.91;90.83
66722;SHT31;53633;49.932;10.884;2023-08-07T05:02:11;13.01;90.78
66722;SHT31;53633;49.932;10.884;2023-08-07T05:04:39;12.95;91.05
66722;SHT31;53633;49.932;10.884;2023-08-07T05:07:06;12.91;90.59
66722;SHT31;53633;49.932;10.884;2023-08-07T05:09:33;12.94;90.56
66722;SHT31;53633;49.932;10.884;2023-08-07T05:12:00;12.95;90.49
66722;SHT31;53633;49.932;10.884;2023-08-07T05:14:26;12.91;90.60
66722;SHT31;53633;49.932;10.884;2023-08-07T05:16:53;12.98;90.37
66722;SHT31;53633;49.932;10.884;2023-08-07T05:19:20;12.92;90.50
66722;SHT31;53633;49.932;10.884;2023-08-07T05:21:48;12.87;90.58
66722;SHT31;53633;49.932;10.884;2023-08-07T05:24:15;12.87;90.77
66722;SHT31;53633;49.932;10.884;2023-08-07T05:26:41;12.90;90.76
66722;SHT31;53633;49.932;10.884;2023-08-07T05:29:08;13.01;90.24
66722;SHT31;53633;49.932;10.884;2023-08-07T05:31:35;12.94;90.17
66722;SHT31;53633;49.932;10.884;2023-08-07T05:34:02;13.01;90.03
66722;SHT31;53633;49.932;10.884;2023-08-07T05:36:29;12.95;89.78
66722;SHT31;53633;49.932;10.884;2023-08-07T05:38:57;13.02;89.92
66722;SHT31;53633;49.932;10.884;2023-08-07T05:41:24;13.07;90.45
66722;SHT31;53633;49.932;10.884;2023-08-07T05:43:50;13.05;89.89
66722;SHT31;53633;49.932;10.884;2023-08-07T05:46:17;13.14;89.42
66722;SHT31;53633;49.932;10.884;2023-08-07T05:48:44;13.19;89.23
66722;SHT31;53633;49.932;10.884;2023-08-07T05:51:11;13.12;89.28
66722;SHT31;53633;49.932;10.884;2023-08-07T05:53:37;13.18;89.45
66722;SHT31;53633;49.932;10.884;2023-08-07T05:56:05;13.25;89.16
66722;SHT31;53633;49.932;10.884;2023-08-07T05:58:32;13.38;88.57
66722;SHT31;53633;49.932;10.884;2023-08-07T06:00:59;13.32;88.67
66722;SHT31;53633;49.932;10.884;2023-08-07T06:03:26;13.25;89.16
66722;SHT31;53633;49.932;10.884;2023-08-07T06:05:52;13.43;88.87
66722;SHT31;53633;49.932;10.884;2023-08-07T06:08:19;13.49;88.69
66722;SHT31;53633;49.932;10.884;2023-08-07T06:10:46;13.59;88.61
66722;SHT31;53633;49.932;10.884;2023-08-07T06:13:14;13.49;88.38
66722;SHT31;53633;49.932;10.884;2023-08-07T06:15:56;13.52;88.55
66722;SHT31;53633;49.932;10.884;2023-08-07T06:18:23;13.57;88.41
66722;SHT31;53633;49.932;10.884;2023-08-07T06:20:49;13.66;88.04
66722;SHT31;53633;49.932;10.884;2023-08-07T06:23:16;13.67;88.04
66722;SHT31;53633;49.932;10.884;2023-08-07T06:25:43;13.69;88.16
66722;SHT31;53633;49.932;10.884;2023-08-07T06:28:09;13.62;88.34
66722;SHT31;53633;49.932;10.884;2023-08-07T06:30:37;13.67;87.79
66722;SHT31;53633;49.932;10.884;2023-08-07T06:33:04;13.57;87.72
66722;SHT31;53633;49.932;10.884;2023-08-07T06:35:31;13.71;87.90
66722;SHT31;53633;49.932;10.884;2023-08-07T06:38:03;13.73;87.88
66722;SHT31;53633;49.932;10.884;2023-08-07T06:40:30;13.71;87.77
66722;SHT31;53633;49.932;10.884;2023-08-07T06:42:57;13.65;87.67
66722;SHT31;53633;49.932;10.884;2023-08-07T06:45:23;13.60;88.07
66722;SHT31;53633;49.932;10.884;2023-08-07T06:47:51;13.66;87.65
66722;SHT31;53633;49.932;10.884;2023-08-07T06:50:18;13.62;87.89
66722;SHT31;53633;49.932;10.884;2023-08-07T06:52:45;13.59;87.52
66722;SHT31;53633;49.932;10.884;2023-08-07T06:55:12;13.59;87.90
66722;SHT31;53633;49.932;10.884;2023-08-07T06:57:38;13.49;87.71
66722;SHT31;53633;49.932;10.884;2023-08-07T07:00:06;13.55;87.74
66722;SHT31;53633;49.932;10.884;2023-08-07T07:02:33;13.57;87.85
66722;SHT31;53633;49.932;10.884;2023-08-07T07:05:01;13.57;88.07
66722;SHT31;53633;49.932;10.884;2023-08-07T07:07:28;13.62;87.84
66722;SHT31;53633;49.932;10.884;2023-08-07T07:09:55;13.66;87.88
66722;SHT31;53633;49.932;10.884;2023-08-07T07:12:21;13.63;87.96
66722;SHT31;53633;49.932;10.884;2023-08-07T07:14:48;13.67;87.65
66722;SHT31;53633;49.932;10.884;2023-08-07T07:17:15;13.62;87.86
66722;SHT31;53633;49.932;10.884;2023-08-07T07:19:42;13.57;87.93
66722;SHT31;53633;49.932;10.884;2023-08-07T07:22:10;13.49;88.17
66722;SHT31;53633;49.932;10.884;2023-08-07T07:24:37;13.49;88.21
66722;SHT31;53633;49.932;10.884;2023-08-07T07:27:05;13.49;88.21
66722;SHT31;53633;49.932;10.884;2023-08-07T07:29:32;13.56;88.16
66722;SHT31;53633;49.932;10.884;2023-08-07T07:31:58;13.59;88.02
66722;SHT31;53633;49.932;10.884;2023-08-07T07:34:26;13.55;88.03
66722;SHT31;53633;49.932;10.884;2023-08-07T07:36:52;13.50;88.05
66722;SHT31;53633;49.932;10.884;2023-08-07T07:39:21;13.65;87.93
66722;SHT31;53633;49.932;10.884;2023-08-07T07:41:47;13.60;87.82
66722;SHT31;53633;49.932;10.884;2023-08-07T07:44:14;13.57;87.92
66722;SHT31;53633;49.932;10.884;2023-08-07T07:46:41;13.50;88.18
66722;SHT31;53633;49.932;10.884;2023-08-07T07:49:07;13.55;88.28
66722;SHT31;53633;49.932;10.884;2023-08-07T07:51:34;13.52;88.08
66722;SHT31;53633;49.932;10.884;2023-08-07T07:54:01;13.66;88.23
66722;SHT31;53633;49.932;10.884;2023-08-07T07:56:42;13.65;88.26
66722;SHT31;53633;49.932;10.884;2023-08-07T07:59:08;13.52;88.38
66722;SHT31;53633;49.932;10.884;2023-08-07T08:01:35;13.50;88.51
66722;SHT31;53633;49.932;10.884;2023-08-07T08:04:02;13.52;88.69
66722;SHT31;53633;49.932;10.884;2023-08-07T08:06:29;13.57;88.55
66722;SHT31;53633;49.932;10.884;2023-08-07T08:08:56;13.60;88.68
66722;SHT31;53633;49.932;10.884;2023-08-07T08:11:23;13.59;88.60
66722;SHT31;53633;49.932;10.884;2023-08-07T08:13:51;13.59;88.86
66722;SHT31;53633;49.932;10.884;2023-08-07T08:16:18;13.59;88.65
66722;SHT31;53633;49.932;10.884;2023-08-07T08:18:44;13.66;88.96
66722;SHT31;53633;49.932;10.884;2023-08-07T08:21:11;13.70;88.85
66722;SHT31;53633;49.932;10.884;2023-08-07T08:23:38;13.69;88.73
66722;SHT31;53633;49.932;10.884;2023-08-07T08:26:05;13.74;87.95
66722;SHT31;53633;49.932;10.884;2023-08-07T08:28:32;13.86;87.89
66722;SHT31;53633;49.932;10.884;2023-08-07T08:31:00;13.97;87.90
66722;SHT31;53633;49.932;10.884;2023-08-07T08:33:27;14.03;87.52
66722;SHT31;53633;49.932;10.884;2023-08-07T08:35:53;14.08;87.35
66722;SHT31;53633;49.932;10.884;2023-08-07T08:38:20;14.17;87.18
66722;SHT31;53633;49.932;10.884;2023-08-07T08:40:50;14.29;86.80
66722;SHT31;53633;49.932;10.884;2023-08-07T08:43:18;14.24;86.49
66722;SHT31;53633;49.932;10.884;2023-08-07T08:45:45;14.15;86.74
66722;SHT31;53633;49.932;10.884;2023-08-07T08:48:18;14.17;87.31
66722;SHT31;53633;49.932;10.884;2023-08-07T08:50:45;14.13;86.36
66722;SHT31;53633;49.932;10.884;2023-08-07T08:53:13;14.18;86.77
66722;SHT31;53633;49.932;10.884;2023-08-07T08:55:40;14.28;87.05
66722;SHT31;53633;49.932;10.884;2023-08-07T08:58:07;14.22;87.71
66722;SHT31;53633;49.932;10.884;2023-08-07T09:00:34;14.21;87.59
66722;SHT31;53633;49.932;10.884;2023-08-07T09:03:02;14.15;88.41
66722;SHT31;53633;49.932;10.884;2023-08-07T09:05:31;14.08;88.42
66722;SHT31;53633;49.932;10.884;2023-08-07T09:07:58;14.14;88.90
66722;SHT31;53633;49.932;10.884;2023-08-07T09:10:26;14.21;89.07
66722;SHT31;53633;49.932;10.884;2023-08-07T09:12:56;14.31;88.92
66722;SHT31;53633;49.932;10.884;2023-08-07T09:15:24;14.32;88.61
66722;SHT31;53633;49.932;10.884;2023-08-07T09:17:53;14.34;88.34
66722;SHT31;53633;49.932;10.884;2023-08-07T09:20:20;14.43;88.53
66722;SHT31;53633;49.932;10.884;2023-08-07T09:22:49;14.38;88.29
66722;SHT31;53633;49.932;10.884;2023-08-07T09:25:26;14.49;87.85
66722;SHT31;53633;49.932;10.884;2023-08-07T09:27:54;14.34;88.17
66722;SHT31;53633;49.932;10.884;2023-08-07T09:30:21;14.32;88.13
66722;SHT31;53633;49.932;10.884;2023-08-07T09:32:52;14.24;88.36
66722;SHT31;53633;49.932;10.884;2023-08-07T09:35:21;14.17;88.73
66722;SHT31;53633;49.932;10.884;2023-08-07T09:37:49;14.08;88.05
66722;SHT31;53633;49.932;10.884;2023-08-07T09:40:16;14.22;88.37
66722;SHT31;53633;49.932;10.884;2023-08-07T09:42:43;14.14;88.45
66722;SHT31;53633;49.932;10.884;2023-08-07T09:45:20;13.95;88.36
66722;SHT31;53633;49.932;10.884;2023-08-07T09:47:56;14.26;88.70
66722;SHT31;53633;49.932;10.884;2023-08-07T09:50:23;14.26;87.97
66722;SHT31;53633;49.932;10.884;2023-08-07T09:52:52;14.43;87.99
66722;SHT31;53633;49.932;10.884;2023-08-07T09:55:18;14.43;87.74
66722;SHT31;53633;49.932;10.884;2023-08-07T09:57:45;14.51;87.15
66722;SHT31;53633;49.932;10.884;2023-08-07T10:00:13;14.53;87.56
66722;SHT31;53633;49.932;10.884;2023-08-07T10:02:40;14.63;87.67
66722;SHT31;53633;49.932;10.884;2023-08-07T10:05:07;14.60;86.78
66722;SHT31;53633;49.932;10.884;2023-08-07T10:07:34;14.69;86.17
66722;SHT31;53633;49.932;10.884;2023-08-07T10:10:03;14.65;85.52
66722;SHT31;53633;49.932;10.884;2023-08-07T10:12:30;14.70;86.10
66722;SHT31;53633;49.932;10.884;2023-08-07T10:14:59;14.77;86.00
66722;SHT31;53633;49.932;10.884;2023-08-07T10:17:26;14.62;85.89
66722;SHT31;53633;49.932;10.884;2023-08-07T10:19:54;14.80;86.30
66722;SHT31;53633;49.932;10.884;2023-08-07T10:22:22;14.76;85.39
66722;SHT31;53633;49.932;10.884;2023-08-07T10:24:50;14.86;85.20
66722;SHT31;53633;49.932;10.884;2023-08-07T10:27:19;14.86;84.80
66722;SHT31;53633;49.932;10.884;2023-08-07T10:29:48;15.01;84.27
66722;SHT31;53633;49.932;10.884;2023-08-07T10:32:19;15.07;84.62
66722;SHT31;53633;49.932;10.884;2023-08-07T10:34:47;15.11;84.23
66722;SHT31;53633;49.932;10.884;2023-08-07T10:37:32;15.20;83.66
66722;SHT31;53633;49.932;10.884;2023-08-07T10:40:03;15.10;83.35
66722;SHT31;53633;49.932;10.884;2023-08-07T10:42:50;15.24;83.23
66722;SHT31;53633;49.932;10.884;2023-08-07T10:45:17;15.24;82.85
66722;SHT31;53633;49.932;10.884;2023-08-07T10:47:56;15.11;83.36
66722;SHT31;53633;49.932;10.884;2023-08-07T10:50:28;15.14;83.16
66722;SHT31;53633;49.932;10.884;2023-08-07T10:52:55;15.17;83.94
66722;SHT31;53633;49.932;10.884;2023-08-07T10:55:21;15.16;83.58
66722;SHT31;53633;49.932;10.884;2023-08-07T10:57:50;15.06;83.30
66722;SHT31;53633;49.932;10.884;2023-08-07T11:00:25;14.94;83.40
66722;SHT31;53633;49.932;10.884;2023-08-07T11:02:52;14.98;83.48
66722;SHT31;53633;49.932;10.884;2023-08-07T11:05:19;15.11;83.18
66722;SHT31;53633;49.932;10.884;2023-08-07T11:07:46;15.23;83.05
66722;SHT31;53633;49.932;10.884;2023-08-07T11:10:14;14.98;82.87
66722;SHT31;53633;49.932;10.884;2023-08-07T11:12:41;15.03;82.75
66722;SHT31;53633;49.932;10.884;2023-08-07T11:15:13;15.23;82.63
66722;SHT31;53633;49.932;10.884;2023-08-07T11:17:39;15.62;81.78
66722;SHT31;53633;49.932;10.884;2023-08-07T11:20:07;15.65;80.59
66722;SHT31;53633;49.932;10.884;2023-08-07T11:22:35;15.55;80.74
66722;SHT31;53633;49.932;10.884;2023-08-07T11:25:01;15.69;80.39
66722;SHT31;53633;49.932;10.884;2023-08-07T11:27:28;15.75;80.25
66722;SHT31;53633;49.932;10.884;2023-08-07T11:29:55;15.78;79.63
66722;SHT31;53633;49.932;10.884;2023-08-07T11:32:23;15.97;79.89
66722;SHT31;53633;49.932;10.884;2023-08-07T11:34:50;15.81;79.37
66722;SHT31;53633;49.932;10.884;2023-08-07T11:37:17;15.66;79.89
66722;SHT31;53633;49.932;10.884;2023-08-07T11:39:44;15.52;79.80
66722;SHT31;53633;49.932;10.884;2023-08-07T11:42:11;15.62;80.41
66722;SHT31;53633;49.932;10.884;2023-08-07T11:44:38;15.42;80.59
66722;SHT31;53633;49.932;10.884;2023-08-07T11:47:05;15.38;80.28
66722;SHT31;53633;49.932;10.884;2023-08-07T11:49:33;15.48;80.68
66722;SHT31;53633;49.932;10.884;2023-08-07T11:52:00;15.46;80.61
66722;SHT31;53633;49.932;10.884;2023-08-07T11:54:27;15.34;80.97
66722;SHT31;53633;49.932;10.884;2023-08-07T11:56:54;15.23;81.84
66722;SHT31;53633;49.932;10.884;2023-08-07T11:59:21;14.97;82.09
66722;SHT31;53633;49.932;10.884;2023-08-07T12:01:48;15.00;82.66
66722;SHT31;53633;49.932;10.884;2023-08-07T12:04:17;14.87;84.13
66722;SHT31;53633;49.932;10.884;2023-08-07T12:06:54;14.91;84.89
66722;SHT31;53633;49.932;10.884;2023-08-07T12:09:22;14.96;84.94
66722;SHT31;53633;49.932;10.884;2023-08-07T12:11:48;14.97;84.62
66722;SHT31;53633;49.932;10.884;2023-08-07T12:14:15;14.83;84.59
66722;SHT31;53633;49.932;10.884;2023-08-07T12:16:44;14.93;84.38
66722;SHT31;53633;49.932;10.884;2023-08-07T12:19:11;14.97;83.52
66722;SHT31;53633;49.932;10.884;2023-08-07T12:21:38;15.03;82.93
66722;SHT31;53633;49.932;10.884;2023-08-07T12:24:07;15.08;82.08
66722;SHT31;53633;49.932;10.884;2023-08-07T12:26:48;14.91;82.27
66722;SHT31;53633;49.932;10.884;2023-08-07T12:29:15;14.98;82.12
66722;SHT31;53633;49.932;10.884;2023-08-07T12:31:42;15.03;82.15
66722;SHT31;53633;49.932;10.884;2023-08-07T12:34:08;15.11;81.74
66722;SHT31;53633;49.932;10.884;2023-08-07T12:36:38;15.10;81.54
66722;SHT31;53633;49.932;10.884;2023-08-07T12:39:06;15.00;81.59
66722;SHT31;53633;49.932;10.884;2023-08-07T12:41:33;15.06;81.64
66722;SHT31;53633;49.932;10.884;2023-08-07T12:44:03;15.17;81.76
66722;SHT31;53633;49.932;10.884;2023-08-07T12:46:30;15.20;81.60
66722;SHT31;53633;49.932;10.884;2023-08-07T12:48:58;15.14;81.89
66722;SHT31;53633;49.932;10.884;2023-08-07T12:51:24;15.18;81.80
66722;SHT31;53633;49.932;10.884;2023-08-07T12:53:51;15.18;81.70
66722;SHT31;53633;49.932;10.884;2023-08-07T12:56:20;15.16;82.03
66722;SHT31;53633;49.932;10.884;2023-08-07T12:58:46;15.17;81.80
66722;SHT31;53633;49.932;10.884;2023-08-07T13:01:13;15.01;81.82
66722;SHT31;53633;49.932;10.884;2023-08-07T13:03:40;15.11;82.11
66722;SHT31;53633;49.932;10.884;2023-08-07T13:06:07;15.25;81.85
66722;SHT31;53633;49.932;10.884;2023-08-07T13:08:34;15.17;81.64
66722;SHT31;53633;49.932;10.884;2023-08-07T13:11:00;15.08;81.37
66722;SHT31;53633;49.932;10.884;2023-08-07T13:13:29;15.14;81.54
66722;SHT31;53633;49.932;10.884;2023-08-07T13:15:55;15.23;81.66
66722;SHT31;53633;49.932;10.884;2023-08-07T13:18:22;15.06;81.97
66722;SHT31;53633;49.932;10.884;2023-08-07T13:20:49;15.11;82.23
66722;SHT31;53633;49.932;10.884;2023-08-07T13:23:16;15.11;82.40
66722;SHT31;53633;49.932;10.884;2023-08-07T13:25:42;15.16;82.25
66722;SHT31;53633;49.932;10.884;2023-08-07T13:28:09;15.12;82.63
66722;SHT31;53633;49.932;10.884;2023-08-07T13:30:38;15.06;83.56
66722;SHT31;53633;49.932;10.884;2023-08-07T13:33:04;14.98;83.63
66722;SHT31;53633;49.932;10.884;2023-08-07T13:35:31;14.97;83.58
66722;SHT31;53633;49.932;10.884;2023-08-07T13:37:58;14.93;83.19
66722;SHT31;53633;49.932;10.884;2023-08-07T13:40:25;14.87;82.98
66722;SHT31;53633;49.932;10.884;2023-08-07T13:42:51;14.89;82.91
66722;SHT31;53633;49.932;10.884;2023-08-07T13:45:19;14.90;82.78
66722;SHT31;53633;49.932;10.884;2023-08-07T13:47:47;15.03;82.93
66722;SHT31;53633;49.932;10.884;2023-08-07T13:50:14;15.08;82.54
66722;SHT31;53633;49.932;10.884;2023-08-07T13:52:40;15.01;82.02
66722;SHT31;53633;49.932;10.884;2023-08-07T13:55:07;14.94;82.61
66722;SHT31;53633;49.932;10.884;2023-08-07T13:57:34;15.03;82.55
66722;SHT31;53633;49.932;10.884;2023-08-07T14:00:01;15.00;82.21
66722;SHT31;53633;49.932;10.884;2023-08-07T14:02:28;15.12;82.09
66722;SHT31;53633;49.932;10.884;2023-08-07T14:04:56;15.23;81.88
66722;SHT31;53633;49.932;10.884;2023-08-07T14:07:22;15.12;81.42
66722;SHT31;53633;49.932;10.884;2023-08-07T14:09:49;15.27;81.55
66722;SHT31;53633;49.932;10.884;2023-08-07T14:12:16;15.28;81.43
66722;SHT31;53633;49.932;10.884;2023-08-07T14:14:43;15.30;81.22
66722;SHT31;53633;49.932;10.884;2023-08-07T14:17:09;15.31;81.05
66722;SHT31;53633;49.932;10.884;2023-08-07T14:19:36;15.56;80.85
66722;SHT31;53633;49.932;10.884;2023-08-07T14:22:04;15.72;80.14
66722;SHT31;53633;49.932;10.884;2023-08-07T14:24:31;15.76;79.73
66722;SHT31;53633;49.932;10.884;2023-08-07T14:26:58;15.69;79.66
66722;SHT31;53633;49.932;10.884;2023-08-07T14:29:24;15.54;79.88
66722;SHT31;53633;49.932;10.884;2023-08-07T14:31:51;15.67;79.28
66722;SHT31;53633;49.932;10.884;2023-08-07T14:34:18;15.99;79.04
66722;SHT31;53633;49.932;10.884;2023-08-07T14:36:44;15.94;78.77
66722;SHT31;53633;49.932;10.884;2023-08-07T14:39:13;16.10;78.75
66722;SHT31;53633;49.932;10.884;2023-08-07T14:41:40;16.18;78.36
66722;SHT31;53633;49.932;10.884;2023-08-07T14:44:07;16.34;78.03
66722;SHT31;53633;49.932;10.884;2023-08-07T14:46:34;16.45;77.58
66722;SHT31;53633;49.932;10.884;2023-08-07T14:49:01;16.37;77.71
66722;SHT31;53633;49.932;10.884;2023-08-07T14:51:27;16.25;77.84
66722;SHT31;53633;49.932;10.884;2023-08-07T14:54:08;16.27;77.53
66722;SHT31;53633;49.932;10.884;2023-08-07T14:56:36;16.38;76.93
66722;SHT31;53633;49.932;10.884;2023-08-07T14:59:02;16.17;76.48
66722;SHT31;53633;49.932;10.884;2023-08-07T15:01:29;16.30;76.76
66722;SHT31;53633;49.932;10.884;2023-08-07T15:03:56;16.31;77.49
66722;SHT31;53633;49.932;10.884;2023-08-07T15:06:23;16.55;76.63
66722;SHT31;53633;49.932;10.884;2023-08-07T15:08:50;16.68;75.87
66722;SHT31;53633;49.932;10.884;2023-08-07T15:11:17;16.76;75.43
66722;SHT31;53633;49.932;10.884;2023-08-07T15:13:45;16.75;75.51
66722;SHT31;53633;49.932;10.884;2023-08-07T15:16:12;16.89;74.89
66722;SHT31;53633;49.932;10.884;2023-08-07T15:18:39;17.09;75.01